Time;durP1;ratioP1;P1;durP2;ratioP2;P2;SDS_P1;SDS_P2;PMS_P1;PMS_P2;Temp;Humidity;BMP_temperature;BMP_pressure;BME280_temperature;BME280_humidity;BME280_pressure;Samples;Min_cycle;Max_cycle;Signal;HPM_P1;HPM_P2
2022/05/06 00:01:30;;;;;;;;;;;;;;;12.84;79.37;96947.07;1672766;84;20340;-83
2022/05/06 00:03:55;;;;;;;;;;;;;;;12.83;79.07;96948.55;1669765;84;20105;-83
2022/05/06 00:06:21;;;;;;;;;;;;;;;12.80;78.80;96952.34;1667811;84;20144;-83
2022/05/06 00:08:47;;;;;;;;;;;;;;;12.80;79.25;96947.13;1671587;84;20337;-83
2022/05/06 00:11:12;;;;;;;;;;;;;;;12.82;78.34;96943.03;1670407;84;20179;-83
2022/05/06 00:13:38;;;;;;;;;;;;;;;12.88;77.98;96948.84;1671792;84;20124;-83
2022/05/06 00:16:04;;;;;;;;;;;;;;;12.91;78.11;96947.17;1673912;84;20355;-83
2022/05/06 00:18:31;;;;;;;;;;;;;;;12.92;78.29;96952.70;1665825;84;20158;-83
2022/05/06 00:20:59;;;;;;;;;;;;;;;12.91;77.71;96952.39;1673240;84;20250;-83
2022/05/06 00:23:24;;;;;;;;;;;;;;;12.90;78.62;96959.90;1670269;84;20092;-83
2022/05/06 00:25:50;;;;;;;;;;;;;;;12.87;78.69;96958.96;1665406;84;20413;-83
2022/05/06 00:28:16;;;;;;;;;;;;;;;12.86;78.87;96954.73;1670377;84;20084;-83
2022/05/06 00:30:41;;;;;;;;;;;;;;;12.85;78.69;96954.40;1665197;84;20369;-83
2022/05/06 00:33:09;;;;;;;;;;;;;;;12.87;78.37;96952.44;1671108;84;20092;-83
2022/05/06 00:35:34;;;;;;;;;;;;;;;12.88;78.69;96945.73;1669225;84;20137;-84
2022/05/06 00:38:00;;;;;;;;;;;;;;;12.88;78.87;96938.41;1676089;84;20167;-83
2022/05/06 00:40:27;;;;;;;;;;;;;;;12.89;78.84;96937.42;1665966;84;20149;-83
2022/05/06 00:42:52;;;;;;;;;;;;;;;12.90;79.53;96928.60;1666250;84;20148;-83
2022/05/06 00:45:18;;;;;;;;;;;;;;;12.86;79.26;96933.88;1670083;84;20124;-83
2022/05/06 00:47:44;;;;;;;;;;;;;;;12.85;79.71;96932.23;1672850;84;20104;-83
2022/05/06 00:50:11;;;;;;;;;;;;;;;12.82;80.62;96935.20;1663102;84;20127;-83
2022/05/06 00:52:37;;;;;;;;;;;;;;;12.78;80.71;96948.30;1669407;84;20105;-83
2022/05/06 00:55:03;;;;;;;;;;;;;;;12.78;80.76;96956.12;1672653;84;20345;-83
2022/05/06 00:57:30;;;;;;;;;;;;;;;12.77;80.79;96962.33;1670668;84;20147;-83
2022/05/06 01:02:40;;;;;;;;;;;;;;;12.70;81.25;96964.06;1676508;85;20167;-83
2022/05/06 01:05:07;;;;;;;;;;;;;;;12.72;81.34;96975.92;1668611;85;20178;-83
2022/05/06 01:07:33;;;;;;;;;;;;;;;12.70;81.29;96969.27;1679265;85;20357;-83
2022/05/06 01:09:59;;;;;;;;;;;;;;;12.70;81.36;96973.19;1678881;84;20132;-83
2022/05/06 01:12:24;;;;;;;;;;;;;;;12.70;81.30;96967.97;1677760;84;20541;-83
2022/05/06 01:14:50;;;;;;;;;;;;;;;12.67;81.31;96979.54;1691250;83;20111;-83
2022/05/06 01:17:16;;;;;;;;;;;;;;;12.62;81.31;96981.39;1690985;84;20088;-83
2022/05/06 01:19:42;;;;;;;;;;;;;;;12.58;81.14;96990.56;1687228;84;20087;-83
2022/05/06 01:22:07;;;;;;;;;;;;;;;12.52;81.20;96989.96;1689570;84;20084;-84
2022/05/06 01:24:33;;;;;;;;;;;;;;;12.49;81.07;96994.73;1684880;84;20190;-83
2022/05/06 01:27:05;;;;;;;;;;;;;;;12.42;81.05;96994.64;1690344;83;20084;-83
2022/05/06 01:29:31;;;;;;;;;;;;;;;12.40;81.19;96990.60;1686745;84;20134;-83
2022/05/06 01:31:56;;;;;;;;;;;;;;;12.39;81.03;97002.02;1691108;84;20118;-84
2022/05/06 01:34:23;;;;;;;;;;;;;;;12.35;81.00;97005.94;1686867;84;20151;-84
2022/05/06 01:36:51;;;;;;;;;;;;;;;12.32;81.06;97007.11;1685757;83;20111;-83
2022/05/06 01:39:18;;;;;;;;;;;;;;;12.24;81.14;97005.40;1688880;84;20108;-83
2022/05/06 01:41:45;;;;;;;;;;;;;;;12.19;81.22;97006.41;1685284;83;20127;-83
2022/05/06 01:44:13;;;;;;;;;;;;;;;12.16;81.38;97008.06;1683752;84;20091;-83
2022/05/06 01:46:39;;;;;;;;;;;;;;;12.14;81.49;97006.63;1692780;84;20354;-83
2022/05/06 01:49:04;;;;;;;;;;;;;;;12.12;81.55;97015.11;1690940;84;20099;-81
2022/05/06 01:51:31;;;;;;;;;;;;;;;12.13;81.68;97020.63;1668932;84;20437;-81
2022/05/06 01:53:57;;;;;;;;;;;;;;;12.20;81.88;97029.36;1689052;84;20384;-81
2022/05/06 01:56:22;;;;;;;;;;;;;;;12.21;81.94;97033.61;1687635;83;20135;-81
2022/05/06 01:58:48;;;;;;;;;;;;;;;12.22;82.39;97033.92;1690992;84;20370;-81
2022/05/06 02:01:14;;;;;;;;;;;;;;;12.18;82.54;97045.66;1719475;82;20117;-81
2022/05/06 02:06:24;;;;;;;;;;;;;;;12.15;83.09;97066.86;1727693;82;20363;-81
2022/05/06 02:08:50;;;;;;;;;;;;;;;12.14;83.13;97068.66;1724931;82;20109;-81
2022/05/06 02:11:15;;;;;;;;;;;;;;;12.19;83.39;97066.81;1693950;83;20170;-81
2022/05/06 02:13:41;;;;;;;;;;;;;;;12.19;83.69;97067.63;1692707;83;20166;-81
2022/05/06 02:16:07;;;;;;;;;;;;;;;12.20;83.86;97064.53;1691887;83;20404;-81
2022/05/06 02:18:33;;;;;;;;;;;;;;;12.20;83.94;97064.53;1692681;83;20142;-81
2022/05/06 02:20:59;;;;;;;;;;;;;;;12.17;84.19;97054.46;1719436;82;20128;-81
2022/05/06 02:23:25;;;;;;;;;;;;;;;12.18;84.37;97050.87;1728732;82;20126;-81
2022/05/06 02:25:50;;;;;;;;;;;;;;;12.17;84.41;97057.88;1730556;82;20360;-81
2022/05/06 02:28:16;;;;;;;;;;;;;;;12.16;84.40;97054.14;1727389;82;20091;-81
2022/05/06 02:33:26;;;;;;;;;;;;;;;12.19;84.83;97043.37;1691839;84;20523;-81
2022/05/06 02:35:52;;;;;;;;;;;;;;;12.23;84.67;97045.97;1686090;84;20127;-81
2022/05/06 02:38:18;;;;;;;;;;;;;;;12.28;84.94;97037.12;1686096;84;20168;-81
2022/05/06 02:40:44;;;;;;;;;;;;;;;12.37;84.80;97041.28;1688867;84;20204;-81
2022/05/06 02:43:10;;;;;;;;;;;;;;;12.37;84.39;97029.56;1721251;82;20482;-81
2022/05/06 02:45:36;;;;;;;;;;;;;;;12.39;84.42;97018.95;1702669;83;20117;-81
2022/05/06 02:48:01;;;;;;;;;;;;;;;12.39;84.43;97015.85;1698275;83;20214;-81
2022/05/06 02:50:27;;;;;;;;;;;;;;;12.38;84.40;97016.03;1728522;82;20084;-81
2022/05/06 02:52:53;;;;;;;;;;;;;;;12.34;84.33;97018.16;1731687;82;20355;-80
2022/05/06 02:55:19;;;;;;;;;;;;;;;12.35;84.27;97013.76;1723108;82;20146;-80
2022/05/06 02:57:45;;;;;;;;;;;;;;;12.36;84.30;97017.48;1732014;82;20138;-81
2022/05/06 03:00:11;;;;;;;;;;;;;;;12.38;84.22;97011.63;1725002;82;20150;-80
2022/05/06 03:02:37;;;;;;;;;;;;;;;12.38;84.12;97014.73;1717936;83;20152;-81
2022/05/06 03:05:03;;;;;;;;;;;;;;;12.36;84.11;97014.07;1718975;82;20392;-81
2022/05/06 03:07:28;;;;;;;;;;;;;;;12.33;84.03;97019.15;1687342;84;20164;-81
2022/05/06 03:09:54;;;;;;;;;;;;;;;12.27;84.11;97012.05;1719264;82;20091;-81
2022/05/06 03:12:20;;;;;;;;;;;;;;;12.21;84.27;97014.88;1718668;82;20122;-81
2022/05/06 03:14:46;;;;;;;;;;;;;;;12.17;84.58;97007.56;1718205;82;20132;-81
2022/05/06 03:17:11;;;;;;;;;;;;;;;12.13;84.66;97006.31;1724172;82;20186;-81
2022/05/06 03:19:37;;;;;;;;;;;;;;;12.10;84.61;97004.87;1719038;82;20098;-80
2022/05/06 03:22:03;;;;;;;;;;;;;;;12.08;84.62;97002.94;1715875;82;20187;-81
2022/05/06 03:24:29;;;;;;;;;;;;;;;12.06;84.75;96993.19;1716661;82;20153;-81
2022/05/06 03:26:54;;;;;;;;;;;;;;;12.09;84.80;96998.53;1719103;83;20136;-80
2022/05/06 03:29:20;;;;;;;;;;;;;;;12.11;84.88;97005.19;1718327;82;20344;-81
2022/05/06 03:31:46;;;;;;;;;;;;;;;12.13;84.86;97001.09;1717342;83;20146;-81
2022/05/06 03:34:12;;;;;;;;;;;;;;;12.16;84.89;97005.95;1714911;82;20445;-81
2022/05/06 03:36:38;;;;;;;;;;;;;;;12.19;84.88;97006.89;1718864;82;20109;-81
2022/05/06 03:39:04;;;;;;;;;;;;;;;12.18;84.94;97010.48;1716557;82;20815;-81
2022/05/06 03:41:30;;;;;;;;;;;;;;;12.17;84.97;97008.88;1717473;83;20141;-81
2022/05/06 03:43:56;;;;;;;;;;;;;;;12.13;85.07;97002.40;1717274;82;20361;-80
2022/05/06 03:46:22;;;;;;;;;;;;;;;12.08;85.05;97006.03;1720299;83;20101;-81
2022/05/06 03:48:47;;;;;;;;;;;;;;;12.07;85.14;97007.83;1715469;82;20170;-80
2022/05/06 03:51:22;;;;;;;;;;;;;;;12.07;85.15;97013.04;1720488;82;20309;-81
2022/05/06 03:53:55;;;;;;;;;;;;;;;12.09;85.22;97016.28;1713713;82;20146;-80
2022/05/06 03:56:23;;;;;;;;;;;;;;;12.11;85.44;97013.00;1718933;83;20167;-81
2022/05/06 03:58:50;;;;;;;;;;;;;;;12.13;85.42;97023.23;1717789;82;20104;-81
2022/05/06 04:01:17;;;;;;;;;;;;;;;12.15;85.46;97016.86;1711010;83;20099;-81
2022/05/06 04:03:42;;;;;;;;;;;;;;;12.19;85.48;97018.62;1708160;83;20216;-81
2022/05/06 04:06:08;;;;;;;;;;;;;;;12.18;85.49;97011.79;1708681;83;20213;-81
2022/05/06 04:08:34;;;;;;;;;;;;;;;12.27;85.55;97022.47;1693451;83;20133;-80
2022/05/06 04:11:00;;;;;;;;;;;;;;;12.25;85.43;97027.86;1711050;83;20129;-80
2022/05/06 04:13:26;;;;;;;;;;;;;;;12.22;85.55;97028.72;1706521;83;20080;-81
2022/05/06 04:15:51;;;;;;;;;;;;;;;12.17;85.64;97025.80;1711659;83;20318;-81
2022/05/06 04:18:17;;;;;;;;;;;;;;;12.16;85.70;97033.30;1702273;83;20093;-81
2022/05/06 04:23:30;;;;;;;;;;;;;;;12.15;85.90;97034.30;1709568;83;20174;-81
2022/05/06 04:26:01;;;;;;;;;;;;;;;12.16;86.00;97035.91;1708749;83;20142;-81
2022/05/06 04:28:28;;;;;;;;;;;;;;;12.16;86.08;97031.51;1706425;83;20392;-81
2022/05/06 04:30:54;;;;;;;;;;;;;;;12.22;86.26;97043.85;1702078;83;20382;-81
2022/05/06 04:33:20;;;;;;;;;;;;;;;12.29;86.28;97045.25;1704799;83;20154;-81
2022/05/06 04:35:46;;;;;;;;;;;;;;;12.36;86.31;97054.47;1710263;83;20095;-81
2022/05/06 04:38:12;;;;;;;;;;;;;;;12.42;86.30;97056.39;1706583;83;20165;-81
2022/05/06 04:40:38;;;;;;;;;;;;;;;12.44;86.23;97053.11;1701969;83;20233;-81
2022/05/06 04:43:04;;;;;;;;;;;;;;;12.45;86.30;97058.14;1697372;83;20172;-81
2022/05/06 04:45:30;;;;;;;;;;;;;;;12.49;86.37;97056.79;1702240;83;20392;-81
2022/05/06 04:47:56;;;;;;;;;;;;;;;12.56;86.43;97065.54;1710086;83;20155;-81
2022/05/06 04:50:21;;;;;;;;;;;;;;;12.63;86.48;97059.92;1710126;83;20146;-81
2022/05/06 04:52:48;;;;;;;;;;;;;;;12.75;86.62;97052.97;1699985;83;20138;-80
2022/05/06 04:55:14;;;;;;;;;;;;;;;12.82;86.53;97060.38;1703180;83;20137;-80
2022/05/06 04:57:40;;;;;;;;;;;;;;;12.85;86.52;97051.73;1719605;83;20190;-81
2022/05/06 05:00:07;;;;;;;;;;;;;;;12.87;86.65;97051.55;1713901;82;20640;-81
2022/05/06 05:02:33;;;;;;;;;;;;;;;12.90;86.55;97053.80;1711014;82;20140;-81
2022/05/06 05:04:58;;;;;;;;;;;;;;;12.94;86.53;97048.52;1676831;84;20107;-81
2022/05/06 05:07:25;;;;;;;;;;;;;;;13.02;86.66;97053.66;1681556;84;20122;-81
2022/05/06 05:09:50;;;;;;;;;;;;;;;13.08;86.72;97054.23;1724542;83;20133;-81
2022/05/06 05:12:16;;;;;;;;;;;;;;;13.17;86.65;97053.63;1714369;83;20089;-81
2022/05/06 05:14:41;;;;;;;;;;;;;;;13.27;86.74;97052.09;1686712;85;20129;-81
2022/05/06 05:17:10;;;;;;;;;;;;;;;13.36;86.76;97058.84;1671712;84;20330;-81
2022/05/06 05:19:36;;;;;;;;;;;;;;;13.51;86.97;97063.05;1676868;83;20148;-81
2022/05/06 05:22:01;;;;;;;;;;;;;;;13.59;86.77;97064.73;1692907;83;20135;-81
2022/05/06 05:24:27;;;;;;;;;;;;;;;13.61;86.73;97062.73;1704572;84;20122;-81
2022/05/06 05:26:54;;;;;;;;;;;;;;;13.70;86.98;97060.34;1703835;84;20130;-81
2022/05/06 05:29:19;;;;;;;;;;;;;;;13.80;86.89;97058.22;1701293;83;20139;-81
2022/05/06 05:31:45;;;;;;;;;;;;;;;13.89;86.84;97062.03;1706035;83;20099;-80
2022/05/06 05:34:10;;;;;;;;;;;;;;;14.01;87.24;97065.78;1708671;84;20083;-80
2022/05/06 05:36:36;;;;;;;;;;;;;;;14.12;86.94;97062.66;1710317;84;20127;-80
2022/05/06 05:39:02;;;;;;;;;;;;;;;14.20;86.54;97066.45;1709028;84;20115;-81
2022/05/06 05:41:27;;;;;;;;;;;;;;;14.31;86.74;97076.39;1709058;84;20111;-80
2022/05/06 05:49:21;;;;;;;;;;;;;;;14.51;85.67;97087.56;1708977;83;20151;-80
2022/05/06 05:51:47;;;;;;;;;;;;;;;14.56;85.49;97089.92;1709225;84;20396;-81
2022/05/06 05:54:15;;;;;;;;;;;;;;;14.54;85.05;97093.72;1708796;83;20146;-80
2022/05/06 05:56:41;;;;;;;;;;;;;;;14.57;84.89;97090.72;1710034;84;20142;-81
2022/05/06 05:59:07;;;;;;;;;;;;;;;14.58;84.90;97100.99;1707514;84;20203;-81
2022/05/06 06:01:33;;;;;;;;;;;;;;;14.57;84.57;97094.15;1699671;83;20135;-81
2022/05/06 06:03:58;;;;;;;;;;;;;;;14.63;83.91;97095.99;1709897;84;20126;-80
2022/05/06 06:06:24;;;;;;;;;;;;;;;14.62;84.18;97093.07;1710171;84;20126;-80
2022/05/06 06:08:49;;;;;;;;;;;;;;;14.67;84.72;97098.56;1710182;84;20178;-81
2022/05/06 06:11:15;;;;;;;;;;;;;;;14.75;84.32;97098.09;1709241;84;20324;-81
2022/05/06 06:13:41;;;;;;;;;;;;;;;14.79;84.13;97092.29;1707159;84;20136;-81
2022/05/06 06:16:07;;;;;;;;;;;;;;;14.83;83.86;97090.93;1698240;83;20157;-81
2022/05/06 06:18:33;;;;;;;;;;;;;;;14.91;84.21;97090.77;1703374;83;20377;-81
2022/05/06 06:20:59;;;;;;;;;;;;;;;14.94;84.39;97094.30;1706015;83;20324;-81
2022/05/06 06:23:24;;;;;;;;;;;;;;;14.90;83.20;97104.86;1706712;83;20104;-81
2022/05/06 06:25:50;;;;;;;;;;;;;;;14.87;82.84;97101.81;1709402;84;20121;-81
2022/05/06 06:28:16;;;;;;;;;;;;;;;14.87;82.63;97105.24;1709991;84;20130;-80
2022/05/06 06:30:41;;;;;;;;;;;;;;;14.91;82.45;97105.16;1707525;84;20118;-81
2022/05/06 06:33:08;;;;;;;;;;;;;;;14.95;83.51;97109.50;1708725;84;20347;-81
2022/05/06 06:35:33;;;;;;;;;;;;;;;14.96;83.12;97102.77;1708729;83;20157;-81
2022/05/06 06:38:00;;;;;;;;;;;;;;;14.98;83.35;97103.91;1705810;84;20177;-80
2022/05/06 06:40:26;;;;;;;;;;;;;;;15.02;83.22;97107.76;1710081;84;20423;-80
2022/05/06 06:42:52;;;;;;;;;;;;;;;15.04;82.39;97108.38;1709348;84;20229;-81
2022/05/06 06:45:17;;;;;;;;;;;;;;;15.06;81.61;97109.48;1707178;83;20309;-81
2022/05/06 06:47:43;;;;;;;;;;;;;;;15.08;81.35;97106.98;1705200;83;20110;-81
2022/05/06 06:50:09;;;;;;;;;;;;;;;15.09;81.63;97103.86;1705269;83;20601;-81
2022/05/06 06:52:35;;;;;;;;;;;;;;;15.08;81.23;97110.91;1706701;83;20114;-81
2022/05/06 06:55:01;;;;;;;;;;;;;;;15.05;81.28;97117.03;1705690;83;20132;-81
2022/05/06 06:57:31;;;;;;;;;;;;;;;15.01;80.99;97116.61;1704202;83;20086;-81
2022/05/06 06:59:57;;;;;;;;;;;;;;;14.96;80.83;97118.47;1707147;83;20424;-81
2022/05/06 07:02:22;;;;;;;;;;;;;;;14.95;80.93;97118.66;1677282;85;20169;-81
2022/05/06 07:04:48;;;;;;;;;;;;;;;14.97;80.73;97116.69;1679902;85;20148;-81
2022/05/06 07:12:42;;;;;;;;;;;;;;;15.10;80.90;97118.06;1678969;85;20125;-81
2022/05/06 07:15:08;;;;;;;;;;;;;;;15.12;80.53;97121.80;1674890;85;20104;-81
2022/05/06 07:17:34;;;;;;;;;;;;;;;15.17;80.39;97122.05;1676469;84;20161;-81
2022/05/06 07:20:00;;;;;;;;;;;;;;;15.23;80.73;97122.08;1677458;84;20344;-81
2022/05/06 07:22:26;;;;;;;;;;;;;;;15.32;80.46;97118.81;1675669;84;20097;-81
2022/05/06 07:24:51;;;;;;;;;;;;;;;15.39;80.11;97122.27;1679895;85;20128;-81
2022/05/06 07:27:18;;;;;;;;;;;;;;;15.46;80.76;97123.12;1680239;85;20338;-81
2022/05/06 07:29:44;;;;;;;;;;;;;;;15.50;80.47;97130.89;1679217;85;20110;-81
2022/05/06 07:32:10;;;;;;;;;;;;;;;15.47;79.91;97135.21;1675755;84;20621;-81
2022/05/06 07:34:35;;;;;;;;;;;;;;;15.43;79.67;97132.65;1674683;84;20141;-81
2022/05/06 07:37:01;;;;;;;;;;;;;;;15.39;79.25;97128.81;1678975;85;20137;-81
2022/05/06 07:39:27;;;;;;;;;;;;;;;15.31;79.23;97132.41;1668766;84;20142;-81
2022/05/06 07:41:53;;;;;;;;;;;;;;;15.24;79.79;97136.78;1674533;85;20105;-81
2022/05/06 07:44:18;;;;;;;;;;;;;;;15.17;79.56;97143.80;1675014;84;20173;-81
2022/05/06 07:46:44;;;;;;;;;;;;;;;15.13;79.94;97145.66;1667095;84;20132;-82
2022/05/06 07:49:10;;;;;;;;;;;;;;;15.08;79.76;97148.05;1676943;83;20211;-81
2022/05/06 07:51:35;;;;;;;;;;;;;;;15.00;79.79;97151.63;1695246;83;20426;-81
2022/05/06 07:54:02;;;;;;;;;;;;;;;15.00;80.52;97143.78;1658304;85;20155;-81
2022/05/06 07:56:30;;;;;;;;;;;;;;;15.00;80.90;97141.98;1663554;86;20125;-83
2022/05/06 07:58:57;;;;;;;;;;;;;;;15.03;81.29;97145.20;1660733;85;20173;-83
2022/05/06 08:04:32;;;;;;;;;;;;;;;15.02;81.34;97148.33;1702120;83;20134;-83
2022/05/06 08:06:34;;;;;;;;;;;;;;;14.94;81.94;97146.64;1694959;84;20214;-83
2022/05/06 08:09:00;;;;;;;;;;;;;;;14.94;82.13;97151.06;1678302;84;20412;-83
2022/05/06 08:11:27;;;;;;;;;;;;;;;14.89;82.52;97154.27;1688406;84;20092;-82
2022/05/06 08:13:53;;;;;;;;;;;;;;;14.88;82.62;97147.91;1715306;83;20137;-83
2022/05/06 08:16:18;;;;;;;;;;;;;;;14.90;82.57;97155.07;1715785;83;20113;-83
2022/05/06 08:18:44;;;;;;;;;;;;;;;14.88;82.22;97152.64;1684980;85;20156;-83
2022/05/06 08:21:10;;;;;;;;;;;;;;;14.85;82.89;97152.22;1692447;83;20103;-84
2022/05/06 08:23:35;;;;;;;;;;;;;;;14.88;83.62;97153.14;1704589;83;20141;-84
2022/05/06 08:26:01;;;;;;;;;;;;;;;14.89;83.33;97163.92;1706394;83;20228;-84
2022/05/06 08:28:27;;;;;;;;;;;;;;;14.87;83.13;97159.38;1708166;83;20170;-84
2022/05/06 08:30:53;;;;;;;;;;;;;;;14.77;82.69;97163.62;1706664;83;20086;-84
2022/05/06 08:33:19;;;;;;;;;;;;;;;14.73;83.09;97165.00;1709806;83;20135;-84
2022/05/06 08:35:45;;;;;;;;;;;;;;;14.71;83.65;97167.00;1708115;83;20119;-85
2022/05/06 08:38:11;;;;;;;;;;;;;;;14.75;84.11;97166.12;1710192;83;20332;-84
2022/05/06 08:40:37;;;;;;;;;;;;;;;14.78;83.93;97170.47;1707117;83;20190;-84
2022/05/06 08:43:04;;;;;;;;;;;;;;;14.82;84.34;97166.50;1706307;83;20573;-84
2022/05/06 08:51:01;;;;;;;;;;;;;;;14.88;84.07;97168.34;1704694;83;20095;-84
2022/05/06 08:53:30;;;;;;;;;;;;;;;14.83;84.03;97170.73;1705650;83;20147;-84
2022/05/06 08:55:56;;;;;;;;;;;;;;;14.83;83.99;97169.92;1701663;83;20139;-84
2022/05/06 08:58:23;;;;;;;;;;;;;;;14.83;84.11;97162.88;1704678;83;20101;-84
2022/05/06 09:00:49;;;;;;;;;;;;;;;14.87;83.75;97165.42;1706685;83;20139;-84
2022/05/06 09:03:15;;;;;;;;;;;;;;;14.89;83.45;97175.20;1702277;84;20162;-84
2022/05/06 09:05:52;;;;;;;;;;;;;;;14.93;83.69;97177.73;1694116;84;20100;-84
2022/05/06 09:08:18;;;;;;;;;;;;;;;14.97;83.80;97183.42;1699347;84;20092;-84
2022/05/06 09:10:46;;;;;;;;;;;;;;;15.01;83.99;97182.84;1701759;83;20137;-83
2022/05/06 09:13:12;;;;;;;;;;;;;;;15.03;83.83;97180.54;1692702;84;20759;-84
2022/05/06 09:18:23;;;;;;;;;;;;;;;15.02;83.37;97190.20;1699133;83;20804;-83
2022/05/06 09:20:50;;;;;;;;;;;;;;;15.04;83.44;97192.62;1695945;83;20396;-82
2022/05/06 09:23:24;;;;;;;;;;;;;;;15.08;83.61;97188.62;1700420;83;20129;-83
2022/05/06 09:25:52;;;;;;;;;;;;;;;15.11;83.86;97196.08;1703129;83;20139;-83
2022/05/06 09:28:26;;;;;;;;;;;;;;;15.07;83.40;97200.90;1697894;84;20095;-83
2022/05/06 09:31:09;;;;;;;;;;;;;;;15.06;83.22;97194.05;1694235;84;20492;-83
2022/05/06 09:33:40;;;;;;;;;;;;;;;15.01;82.79;97194.63;1690755;84;20126;-83
2022/05/06 09:36:26;;;;;;;;;;;;;;;14.94;82.66;97204.21;1683725;84;20092;-83
2022/05/06 09:39:03;;;;;;;;;;;;;;;14.87;83.05;97203.36;1696696;83;20352;-83
2022/05/06 09:41:29;;;;;;;;;;;;;;;14.80;82.65;97199.05;1689671;83;20151;-83
2022/05/06 09:44:01;;;;;;;;;;;;;;;14.77;82.60;97204.66;1693890;84;20196;-83
2022/05/06 09:46:27;;;;;;;;;;;;;;;14.77;82.78;97201.55;1695510;84;20163;-83
2022/05/06 09:48:56;;;;;;;;;;;;;;;14.78;83.30;97194.51;1673666;84;20178;-83
2022/05/06 09:51:29;;;;;;;;;;;;;;;14.77;83.21;97196.31;1691744;83;20179;-82
2022/05/06 09:53:55;;;;;;;;;;;;;;;14.76;83.07;97203.05;1696221;84;20143;-83
2022/05/06 09:56:21;;;;;;;;;;;;;;;14.74;82.95;97199.31;1695481;84;20107;-83
2022/05/06 09:58:46;;;;;;;;;;;;;;;14.71;82.80;97200.50;1694713;84;20174;-83
2022/05/06 10:01:17;;;;;;;;;;;;;;;14.73;83.15;97193.77;1689981;84;20119;-83
2022/05/06 10:03:43;;;;;;;;;;;;;;;14.70;82.80;97195.46;1689938;84;20373;-83
2022/05/06 10:06:09;;;;;;;;;;;;;;;14.65;82.70;97203.07;1693322;84;20179;-83
2022/05/06 10:08:36;;;;;;;;;;;;;;;14.59;83.01;97198.56;1696861;84;20193;-83
2022/05/06 10:11:02;;;;;;;;;;;;;;;14.59;82.99;97203.80;1690773;84;20193;-83
2022/05/06 10:13:29;;;;;;;;;;;;;;;14.57;82.67;97209.72;1692119;84;20083;-83
2022/05/06 10:15:55;;;;;;;;;;;;;;;14.56;82.95;97207.60;1696484;83;20154;-83
2022/05/06 10:18:35;;;;;;;;;;;;;;;14.54;82.59;97200.44;1695491;83;20099;-83
2022/05/06 10:21:04;;;;;;;;;;;;;;;14.48;82.78;97200.36;1697111;84;20116;-83
2022/05/06 10:23:50;;;;;;;;;;;;;;;14.54;83.55;97202.25;1686853;84;20495;-83
2022/05/06 10:26:37;;;;;;;;;;;;;;;14.55;83.52;97205.17;1686942;84;20169;-83
2022/05/06 10:34:35;;;;;;;;;;;;;;;14.64;83.88;97201.42;1684904;84;20111;-83
2022/05/06 10:37:02;;;;;;;;;;;;;;;14.71;84.06;97200.50;1686311;84;20199;-83
2022/05/06 10:39:30;;;;;;;;;;;;;;;14.79;83.85;97190.89;1686090;84;20112;-83
2022/05/06 10:42:12;;;;;;;;;;;;;;;14.82;83.71;97190.55;1684687;84;20187;-84
2022/05/06 10:44:48;;;;;;;;;;;;;;;14.83;83.36;97196.89;1686256;84;20323;-83
2022/05/06 10:47:20;;;;;;;;;;;;;;;14.85;83.27;97200.12;1686336;84;20202;-84
2022/05/06 10:49:50;;;;;;;;;;;;;;;14.80;82.74;97203.78;1685677;84;20141;-83
2022/05/06 10:54:53;;;;;;;;;;;;;;;14.79;82.72;97203.47;1687229;84;21038;-83
2022/05/06 10:57:20;;;;;;;;;;;;;;;14.81;82.10;97197.58;1691006;84;20172;-83
2022/05/06 10:59:55;;;;;;;;;;;;;;;14.87;82.81;97196.02;1687405;84;20100;-84
2022/05/06 11:02:31;;;;;;;;;;;;;;;14.92;82.98;97194.44;1689674;84;20174;-84
2022/05/06 11:05:01;;;;;;;;;;;;;;;15.04;82.34;97188.70;1719890;82;20125;-84
2022/05/06 11:07:28;;;;;;;;;;;;;;;15.13;81.82;97190.16;1697193;84;20095;-84
2022/05/06 11:09:53;;;;;;;;;;;;;;;15.14;82.30;97186.07;1708614;83;20343;-83
2022/05/06 11:12:33;;;;;;;;;;;;;;;15.27;82.57;97179.59;1709161;83;20141;-84
2022/05/06 11:14:58;;;;;;;;;;;;;;;15.34;81.60;97179.65;1710844;83;20139;-83
2022/05/06 11:17:27;;;;;;;;;;;;;;;15.39;81.96;97181.69;1710790;83;20182;-83
2022/05/06 11:19:53;;;;;;;;;;;;;;;15.50;82.96;97179.34;1710056;83;20158;-83
2022/05/06 11:22:20;;;;;;;;;;;;;;;15.60;81.81;97182.44;1712770;83;20143;-84
2022/05/06 11:24:46;;;;;;;;;;;;;;;15.65;81.26;97178.45;1710799;83;20316;-84
2022/05/06 11:27:16;;;;;;;;;;;;;;;15.72;81.16;97176.66;1712810;83;20175;-84
2022/05/06 11:29:55;;;;;;;;;;;;;;;15.81;82.20;97171.06;1702905;83;20132;-83
2022/05/06 11:32:19;;;;;;;;;;;;;;;15.78;80.15;97178.48;1709163;83;20250;-84
2022/05/06 11:34:54;;;;;;;;;;;;;;;15.75;81.04;97177.57;1700848;83;20147;-84
2022/05/06 11:37:28;;;;;;;;;;;;;;;15.74;80.72;97173.33;1700988;83;20180;-83
2022/05/06 11:42:38;;;;;;;;;;;;;;;15.65;79.97;97169.28;1703599;83;20137;-83
2022/05/06 11:47:49;;;;;;;;;;;;;;;15.71;80.81;97177.66;1706235;83;20134;-83
2022/05/06 11:50:15;;;;;;;;;;;;;;;15.72;80.71;97184.02;1697568;83;20319;-84
2022/05/06 11:52:41;;;;;;;;;;;;;;;15.71;80.92;97186.33;1703414;83;20149;-83
2022/05/06 11:55:07;;;;;;;;;;;;;;;15.72;80.43;97185.83;1701131;83;20143;-83
2022/05/06 11:57:35;;;;;;;;;;;;;;;15.72;80.77;97184.02;1702584;83;20230;-83
2022/05/06 12:00:03;;;;;;;;;;;;;;;15.71;80.50;97188.14;1708071;83;20099;-83
2022/05/06 12:02:29;;;;;;;;;;;;;;;15.68;80.56;97191.16;1706275;83;20154;-83
2022/05/06 12:04:54;;;;;;;;;;;;;;;15.69;81.20;97192.77;1706403;83;20159;-83
2022/05/06 12:07:21;;;;;;;;;;;;;;;15.63;80.72;97191.74;1719541;82;20176;-83
2022/05/06 12:09:50;;;;;;;;;;;;;;;15.47;80.53;97198.06;1692031;83;20169;-83
2022/05/06 12:12:16;;;;;;;;;;;;;;;15.45;81.13;97193.50;1666113;83;20137;-83
2022/05/06 12:14:41;;;;;;;;;;;;;;;15.43;80.90;97194.19;1693074;84;20140;-83
2022/05/06 12:17:13;;;;;;;;;;;;;;;15.37;80.74;97184.50;1692587;84;20140;-84
2022/05/06 12:19:40;;;;;;;;;;;;;;;15.32;80.81;97189.51;1692626;84;20096;-85
2022/05/06 12:22:16;;;;;;;;;;;;;;;15.38;82.20;97187.92;1693336;84;20114;-83
2022/05/06 12:24:46;;;;;;;;;;;;;;;15.40;81.35;97189.34;1695012;84;20128;-83
2022/05/06 12:27:12;;;;;;;;;;;;;;;15.33;80.72;97188.51;1724208;82;20117;-84
2022/05/06 12:29:39;;;;;;;;;;;;;;;15.29;81.40;97189.87;1715432;82;20138;-83
2022/05/06 12:32:05;;;;;;;;;;;;;;;15.25;80.94;97186.83;1725005;82;20105;-84
2022/05/06 12:34:33;;;;;;;;;;;;;;;15.22;81.56;97186.41;1722973;82;20125;-83
2022/05/06 12:37:11;;;;;;;;;;;;;;;15.21;81.81;97184.79;1725283;82;20148;-83
2022/05/06 12:39:45;;;;;;;;;;;;;;;15.20;81.28;97179.25;1725004;82;20093;-83
2022/05/06 12:42:12;;;;;;;;;;;;;;;15.17;81.01;97175.71;1718037;82;20132;-83
2022/05/06 12:44:38;;;;;;;;;;;;;;;15.13;80.85;97173.14;1720678;82;20112;-83
2022/05/06 12:50:11;;;;;;;;;;;;;;;15.13;80.89;97172.67;1720067;83;20802;-83
2022/05/06 12:52:38;;;;;;;;;;;;;;;15.15;81.22;97165.94;1718988;82;20093;-82
2022/05/06 12:55:04;;;;;;;;;;;;;;;15.14;81.08;97170.36;1709741;83;20230;-82
2022/05/06 12:57:30;;;;;;;;;;;;;;;15.11;81.08;97163.37;1711217;83;20134;-82
2022/05/06 12:59:55;;;;;;;;;;;;;;;15.16;82.27;97155.77;1692041;84;20789;-83
2022/05/06 13:02:22;;;;;;;;;;;;;;;15.22;82.62;97158.42;1689344;84;20143;-82
2022/05/06 13:04:48;;;;;;;;;;;;;;;15.27;81.58;97148.17;1690561;84;20104;-83
2022/05/06 13:07:14;;;;;;;;;;;;;;;15.33;81.87;97153.16;1696121;84;20099;-83
2022/05/06 13:09:40;;;;;;;;;;;;;;;15.40;80.86;97149.25;1718701;82;20168;-83
2022/05/06 13:12:08;;;;;;;;;;;;;;;15.41;80.47;97154.30;1684510;83;20106;-83
2022/05/06 13:14:34;;;;;;;;;;;;;;;15.45;81.16;97150.78;1693115;84;20099;-84
2022/05/06 13:16:59;;;;;;;;;;;;;;;15.44;81.32;97143.43;1710929;83;20110;-86
2022/05/06 13:19:26;;;;;;;;;;;;;;;15.48;80.84;97137.33;1709636;82;20091;-84
2022/05/06 13:21:53;;;;;;;;;;;;;;;15.48;80.17;97137.33;1700154;83;20114;-85
2022/05/06 13:24:18;;;;;;;;;;;;;;;15.43;80.10;97141.81;1699631;82;20095;-83
2022/05/06 13:26:44;;;;;;;;;;;;;;;15.46;80.39;97136.72;1704989;83;20179;-84
2022/05/06 13:29:11;;;;;;;;;;;;;;;15.47;80.08;97135.72;1693491;83;20333;-83
2022/05/06 13:31:37;;;;;;;;;;;;;;;15.47;79.63;97129.97;1724521;83;20140;-83
2022/05/06 13:34:03;;;;;;;;;;;;;;;15.46;79.92;97127.55;1694801;83;20132;-84
2022/05/06 13:36:30;;;;;;;;;;;;;;;15.45;79.23;97127.22;1702656;84;20313;-84